createdAt,value
2022-11-13T00:01:26.733Z,100713.81
2022-11-13T00:03:55.226Z,100718.72
2022-11-13T00:06:23.718Z,100717.03
2022-11-13T00:08:56.883Z,100706.28
2022-11-13T00:11:25.287Z,100718.34
2022-11-13T00:13:53.673Z,100717.53
2022-11-13T00:16:22.887Z,100718.59
2022-11-13T00:18:51.331Z,100710.59
2022-11-13T00:21:21.951Z,100714.66
2022-11-13T00:23:51.578Z,100712.97
2022-11-13T00:26:23.432Z,100713.19
2022-11-13T00:28:54.873Z,100725.50
2022-11-13T00:31:23.820Z,100716.41
2022-11-13T00:34:14.060Z,100713.91
2022-11-13T00:36:41.052Z,100713.06
2022-11-13T00:39:10.440Z,100709.72
2022-11-13T00:41:40.244Z,100708.66
2022-11-13T00:44:08.938Z,100711.16
2022-11-13T00:46:37.302Z,100708.41
2022-11-13T00:49:05.861Z,100705.66
2022-11-13T00:51:34.459Z,100705.41
2022-11-13T00:54:02.909Z,100701.81
2022-11-13T00:56:31.338Z,100704.56
2022-11-13T00:59:01.079Z,100706.50
2022-11-13T01:01:29.726Z,100705.41
2022-11-13T01:03:58.496Z,100708.16
2022-11-13T01:06:28.961Z,100707.31
2022-11-13T01:08:58.550Z,100703.97
2022-11-13T01:11:29.914Z,100719.66
2022-11-13T01:14:00.114Z,100703.16
2022-11-13T01:16:30.269Z,100705.28
2022-11-13T01:18:58.968Z,100698.13
2022-11-13T01:21:29.265Z,100711.03
2022-11-13T01:23:58.065Z,100694.78
2022-11-13T01:26:29.733Z,100700.50
2022-11-13T01:29:00.997Z,100707.91
2022-11-13T01:31:31.754Z,100690.78
2022-11-13T01:34:00.244Z,100695.47
2022-11-13T01:36:30.377Z,100696.53
2022-11-13T01:38:58.960Z,100698.69
2022-11-13T01:41:29.986Z,100695.34
2022-11-13T01:44:01.419Z,100705.75
2022-11-13T01:46:32.560Z,100697.34
2022-11-13T01:49:14.240Z,100699.25
2022-11-13T01:51:48.793Z,100690.41
2022-11-13T01:54:22.690Z,100692.56
2022-11-13T01:56:52.036Z,100693.63
2022-11-13T01:59:26.933Z,100676.78
2022-11-13T02:01:57.274Z,100678.06
2022-11-13T02:04:26.138Z,100679.38
2022-11-13T02:07:01.648Z,100677.94
2022-11-13T02:09:34.838Z,100679.25
2022-11-13T02:12:03.434Z,100680.78
2022-11-13T02:14:34.209Z,100679.59
2022-11-13T02:17:07.308Z,100675.63
2022-11-13T02:19:40.767Z,100677.16
2022-11-13T02:22:17.979Z,100675.94
2022-11-13T02:24:54.444Z,100673.66
2022-11-13T02:27:37.657Z,100672.69
2022-11-13T02:30:23.587Z,100676.72
2022-11-13T02:32:55.713Z,100675.53
2022-11-13T02:35:28.486Z,100662.50
2022-11-13T02:37:59.252Z,100661.84
2022-11-13T02:40:30.492Z,100651.34
2022-11-13T02:42:58.833Z,100672.72
2022-11-13T02:45:27.227Z,100667.69
2022-11-13T02:47:55.594Z,100669.22
2022-11-13T02:50:24.611Z,100671.56
2022-11-13T02:52:53.108Z,100667.63
2022-11-13T02:55:21.663Z,100661.72
2022-11-13T02:57:51.414Z,100670.44
2022-11-13T03:00:20.519Z,100660.13
2022-11-13T03:02:50.066Z,100667.97
2022-11-13T03:05:18.741Z,100662.31
2022-11-13T03:07:47.090Z,100661.72
2022-11-13T03:10:16.000Z,100668.03
2022-11-13T03:12:44.425Z,100665.06
2022-11-13T03:15:14.263Z,100655.31
2022-11-13T03:17:42.655Z,100663.94
2022-11-13T03:20:11.572Z,100663.47
2022-11-13T03:22:39.926Z,100659.22
2022-11-13T03:25:10.937Z,100652.84
2022-11-13T03:27:39.624Z,100662.03
2022-11-13T03:30:10.055Z,100645.97
2022-11-13T03:32:39.761Z,100650.28
2022-11-13T03:35:09.654Z,100638.38
2022-11-13T03:37:38.010Z,100649.28
2022-11-13T03:40:08.298Z,100644.97
2022-11-13T03:42:36.602Z,100632.22
2022-11-13T03:45:05.695Z,100637.03
2022-11-13T03:47:34.307Z,100629.97
2022-11-13T03:50:04.068Z,100630.97
2022-11-13T03:52:32.450Z,100630.88
2022-11-13T03:55:00.792Z,100616.16
2022-11-13T03:57:29.144Z,100627.31
2022-11-13T03:59:57.491Z,100622.75
2022-11-13T04:02:25.863Z,100609.38
2022-11-13T04:04:54.238Z,100609.38
2022-11-13T04:07:24.015Z,100616.31
2022-11-13T04:09:52.351Z,100610.38
2022-11-13T04:12:20.715Z,100610.97
2022-11-13T04:14:49.085Z,100614.53
2022-11-13T04:17:17.529Z,100614.53
2022-11-13T04:19:45.881Z,100608.56
2022-11-13T04:22:14.290Z,100604.50
2022-11-13T04:24:44.018Z,100605.69
2022-11-13T04:27:12.393Z,100593.16
2022-11-13T04:29:40.772Z,100602.81
2022-11-13T04:32:09.324Z,100602.34
2022-11-13T04:34:37.696Z,100603.53
2022-11-13T04:37:06.084Z,100603.31
2022-11-13T04:39:34.457Z,100603.91
2022-11-13T04:42:21.342Z,100596.50
2022-11-13T04:44:49.700Z,100608.09
2022-11-13T04:47:18.074Z,100594.09
2022-11-13T04:49:46.425Z,100589.19
2022-11-13T04:52:14.928Z,100601.88
2022-11-13T04:54:43.293Z,100595.28
2022-11-13T04:57:13.024Z,100599.47
2022-11-13T04:59:41.425Z,100593.13
2022-11-13T05:02:09.838Z,100593.13
2022-11-13T05:04:38.290Z,100593.97
2022-11-13T05:07:06.744Z,100590.16
2022-11-13T05:09:35.161Z,100592.66
2022-11-13T05:12:05.086Z,100591.13
2022-11-13T05:14:35.247Z,100596.16
2022-11-13T05:17:03.760Z,100589.59
2022-11-13T05:19:33.704Z,100605.00
2022-11-13T05:22:02.909Z,100612.41
2022-11-13T05:24:31.566Z,100609.06
2022-11-13T05:26:59.966Z,100605.72
2022-11-13T05:29:28.296Z,100608.72
2022-11-13T05:31:58.011Z,100607.03
2022-11-13T05:34:26.288Z,100605.13
2022-11-13T05:36:54.637Z,100607.88
2022-11-13T05:39:23.110Z,100601.53
2022-11-13T05:41:51.458Z,100597.09
2022-11-13T05:44:19.795Z,100600.31
2022-11-13T05:46:48.162Z,100602.22
2022-11-13T05:49:17.991Z,100598.88
2022-11-13T05:51:46.357Z,100610.72
2022-11-13T05:54:14.861Z,100608.22
2022-11-13T05:56:43.261Z,100609.03
2022-11-13T05:59:11.759Z,100602.94
2022-11-13T06:01:41.798Z,100609.75
2022-11-13T06:04:11.047Z,100611.31
2022-11-13T06:06:40.872Z,100611.69
2022-11-13T06:09:09.447Z,100609.03
2022-11-13T06:11:37.786Z,100610.59
2022-11-13T06:14:06.193Z,100608.81
2022-11-13T06:16:37.778Z,100618.00
2022-11-13T06:19:09.036Z,100622.53
2022-11-13T06:21:41.667Z,100620.50
2022-11-13T06:24:13.513Z,100624.31
2022-11-13T06:26:42.252Z,100622.66
2022-11-13T06:29:13.716Z,100632.56
2022-11-13T06:31:42.082Z,100626.84
2022-11-13T06:34:10.408Z,100633.41
2022-11-13T06:36:40.812Z,100628.97
2022-11-13T06:39:10.780Z,100634.69
2022-11-13T06:41:40.758Z,100631.34
2022-11-13T06:44:09.438Z,100634.09
2022-11-13T06:46:38.019Z,100623.94
2022-11-13T06:49:06.361Z,100620.97
2022-11-13T06:51:34.709Z,100616.91
2022-11-13T06:54:04.682Z,100616.44
2022-11-13T06:56:33.088Z,100623.84
2022-11-13T06:59:01.881Z,100623.47
2022-11-13T07:01:32.504Z,100630.75
2022-11-13T07:04:00.898Z,100627.63
2022-11-13T07:06:29.228Z,100620.94
2022-11-13T07:08:57.667Z,100626.06
2022-11-13T07:11:27.391Z,100622.09
2022-11-13T07:13:55.754Z,100622.34
2022-11-13T07:16:24.118Z,100618.16
2022-11-13T07:18:53.600Z,100621.97
2022-11-13T07:21:23.991Z,100617.31
2022-11-13T07:23:52.679Z,100621.75
2022-11-13T07:26:21.406Z,100615.66
2022-11-13T07:28:51.318Z,100624.94
2022-11-13T07:31:19.945Z,100613.34
2022-11-13T07:33:51.505Z,100615.03
2022-11-13T07:36:20.015Z,100617.69
2022-11-13T07:38:48.398Z,100620.34
2022-11-13T07:41:16.775Z,100614.13
2022-11-13T07:43:45.192Z,100614.25
2022-11-13T07:46:15.015Z,100618.81
2022-11-13T07:48:43.447Z,100616.19
2022-11-13T07:51:11.826Z,100619.06
2022-11-13T07:53:40.158Z,100630.22
2022-11-13T07:56:09.564Z,100621.25
2022-11-13T07:58:37.982Z,100613.72
2022-11-13T08:01:08.014Z,100613.34
2022-11-13T08:03:37.831Z,100635.84
2022-11-13T08:06:08.794Z,100620.06
2022-11-13T08:08:37.281Z,100629.28
2022-11-13T08:11:07.504Z,100626.44
2022-11-13T08:13:36.630Z,100630.16
2022-11-13T08:16:06.042Z,100631.91
2022-11-13T08:18:34.675Z,100624.63
2022-11-13T08:21:10.592Z,100621.97
2022-11-13T08:23:43.528Z,100621.63
2022-11-13T08:26:12.355Z,100624.47
2022-11-13T08:28:41.385Z,100627.34
2022-11-13T08:31:13.477Z,100620.28
2022-11-13T08:33:43.154Z,100626.97
2022-11-13T08:36:13.235Z,100632.56
2022-11-13T08:38:41.609Z,100632.69
2022-11-13T08:41:10.172Z,100624.75
2022-11-13T08:43:38.544Z,100623.81
2022-11-13T08:46:07.550Z,100623.66
2022-11-13T08:48:35.991Z,100625.16
2022-11-13T08:51:04.893Z,100617.59
2022-11-13T08:53:34.623Z,100628.25
2022-11-13T08:56:03.419Z,100622.81
2022-11-13T08:58:32.200Z,100630.94
2022-11-13T09:01:05.228Z,100626.13
2022-11-13T09:03:36.223Z,100621.06
2022-11-13T09:06:07.569Z,100627.00
2022-11-13T09:08:37.299Z,100624.44
2022-11-13T09:11:06.276Z,100622.34
2022-11-13T09:13:41.207Z,100614.47
2022-11-13T09:16:12.327Z,100616.25
2022-11-13T09:18:40.717Z,100616.94
2022-11-13T09:21:09.042Z,100623.94
2022-11-13T09:23:38.939Z,100614.88
2022-11-13T09:26:07.345Z,100617.47
2022-11-13T09:28:35.831Z,100616.72
2022-11-13T09:31:06.159Z,100616.56
2022-11-13T09:33:34.808Z,100615.84
2022-11-13T09:36:03.550Z,100610.97
2022-11-13T09:38:32.251Z,100614.16
2022-11-13T09:41:06.433Z,100618.75
2022-11-13T09:43:41.340Z,100615.63
2022-11-13T09:46:18.382Z,100611.00
2022-11-13T09:48:54.025Z,100617.16
2022-11-13T09:51:27.502Z,100607.56
2022-11-13T09:53:55.960Z,100606.84
2022-11-13T09:56:34.562Z,100602.81
2022-11-13T09:59:16.651Z,100600.41
2022-11-13T10:01:58.015Z,100601.31
2022-11-13T10:04:41.232Z,100597.81
2022-11-13T10:07:30.079Z,100598.69
2022-11-13T10:10:18.514Z,100584.91
2022-11-13T10:12:51.031Z,100579.72
2022-11-13T10:15:19.740Z,100582.53
2022-11-13T10:17:56.649Z,100576.50
2022-11-13T10:20:34.099Z,100577.94
2022-11-13T10:23:14.297Z,100569.63
2022-11-13T10:25:44.757Z,100562.19
2022-11-13T10:31:07.190Z,100543.19
2022-11-13T10:33:35.637Z,100533.25
2022-11-13T10:36:17.409Z,100531.38
2022-11-13T10:38:50.313Z,100523.41
2022-11-13T10:41:21.373Z,100520.38
2022-11-13T10:43:57.753Z,100515.16
2022-11-13T10:46:29.995Z,100511.06
2022-11-13T10:48:58.459Z,100508.34
2022-11-13T10:51:29.842Z,100502.38
2022-11-13T10:54:00.160Z,100493.59
2022-11-13T10:56:30.659Z,100492.56
2022-11-13T10:59:11.386Z,100492.59
2022-11-13T11:01:40.624Z,100484.25
2022-11-13T11:04:14.851Z,100481.13
2022-11-13T11:09:33.686Z,100464.78
2022-11-13T11:12:30.149Z,100462.09
2022-11-13T11:15:11.523Z,100455.63
2022-11-13T11:17:46.368Z,100452.13
2022-11-13T11:20:41.344Z,100445.25
2022-11-13T11:23:28.239Z,100433.94
2022-11-13T11:26:01.109Z,100445.63
2022-11-13T11:28:37.128Z,100440.88
2022-11-13T11:31:20.794Z,100435.63
2022-11-13T11:33:54.737Z,100435.22
2022-11-13T11:36:32.606Z,100430.09
2022-11-13T11:39:14.318Z,100419.84
2022-11-13T11:41:47.488Z,100415.16
2022-11-13T11:44:23.648Z,100417.97
2022-11-13T11:46:53.417Z,100418.25
2022-11-13T11:49:24.115Z,100404.88
2022-11-13T11:52:10.670Z,100402.84
2022-11-13T11:54:43.900Z,100398.38
2022-11-13T11:57:36.636Z,100391.03
2022-11-13T12:00:10.943Z,100383.28
2022-11-13T12:03:31.153Z,100369.56
2022-11-13T12:06:15.858Z,100362.72
2022-11-13T12:08:51.851Z,100361.94
2022-11-13T12:11:30.500Z,100354.72
2022-11-13T12:14:11.240Z,100345.81
2022-11-13T12:16:50.295Z,100337.41
2022-11-13T12:19:32.681Z,100345.16
2022-11-13T12:22:12.144Z,100339.81
2022-11-13T12:25:01.706Z,100333.66
2022-11-13T12:27:38.250Z,100322.38
2022-11-13T12:30:17.738Z,100328.47
2022-11-13T12:33:17.954Z,100330.31
2022-11-13T12:35:51.902Z,100315.59
2022-11-13T12:38:34.671Z,100319.31
2022-11-13T12:41:15.839Z,100317.19
2022-11-13T12:44:06.241Z,100309.06
2022-11-13T12:46:37.718Z,100308.41
2022-11-13T12:49:33.228Z,100305.03
2022-11-13T12:52:06.519Z,100308.84
2022-11-13T12:54:37.721Z,100306.69
2022-11-13T12:57:20.969Z,100301.25
2022-11-13T12:59:53.880Z,100300.06
2022-11-13T13:02:48.266Z,100314.41
2022-11-13T13:05:31.671Z,100305.28
2022-11-13T13:08:27.287Z,100314.44
2022-11-13T13:11:13.650Z,100314.59
2022-11-13T13:13:52.911Z,100316.94
2022-11-13T13:16:27.546Z,100316.16
2022-11-13T13:19:08.726Z,100309.13
2022-11-13T13:21:45.549Z,100318.34
2022-11-13T13:24:34.874Z,100305.78
2022-11-13T13:27:03.537Z,100313.28
2022-11-13T13:29:34.639Z,100318.34
2022-11-13T13:32:17.982Z,100308.31
2022-11-13T13:35:01.954Z,100313.75
2022-11-13T13:37:40.852Z,100309.44
2022-11-13T13:40:29.102Z,100314.59
2022-11-13T13:43:21.054Z,100314.38
2022-11-13T13:46:02.877Z,100315.56
2022-11-13T13:48:33.219Z,100309.75
2022-11-13T13:51:03.163Z,100310.34
2022-11-13T13:53:35.391Z,100313.44
2022-11-13T13:56:11.111Z,100307.91
2022-11-13T13:58:40.886Z,100305.16
2022-11-13T14:01:19.344Z,100307.38
2022-11-13T14:03:48.443Z,100309.59
2022-11-13T14:06:23.385Z,100300.72
2022-11-13T14:08:51.802Z,100300.72
2022-11-13T14:11:26.987Z,100303.47
2022-11-13T14:13:55.466Z,100307.03
2022-11-13T14:16:23.910Z,100299.81
2022-11-13T14:18:52.279Z,100302.31
2022-11-13T14:21:25.071Z,100298.41
2022-11-13T14:23:55.499Z,100295.63
2022-11-13T14:26:25.381Z,100293.63
2022-11-13T14:28:59.178Z,100296.94
2022-11-13T14:31:35.431Z,100299.38
2022-11-13T14:34:10.684Z,100296.88
2022-11-13T14:36:40.952Z,100289.06
2022-11-13T14:39:23.308Z,100296.78
2022-11-13T14:41:57.787Z,100287.91
2022-11-13T14:44:31.915Z,100283.69
2022-11-13T14:47:03.407Z,100285.03
2022-11-13T14:49:34.685Z,100286.41
2022-11-13T14:52:05.342Z,100275.31
2022-11-13T14:55:08.290Z,100280.25
2022-11-13T14:57:26.446Z,100289.00
2022-11-13T14:59:55.180Z,100289.00
2022-11-13T15:02:24.180Z,100285.63
2022-11-13T15:04:53.307Z,100287.50
2022-11-13T15:07:31.822Z,100281.91
2022-11-13T15:10:01.156Z,100300.09
2022-11-13T15:12:31.156Z,100296.72
2022-11-13T15:15:00.186Z,100289.47
2022-11-13T15:17:28.910Z,100287.50
2022-11-13T15:19:57.852Z,100290.50
2022-11-13T15:22:28.825Z,100299.56
2022-11-13T15:24:58.692Z,100282.09
2022-11-13T15:27:28.292Z,100282.06
2022-11-13T15:29:59.051Z,100286.72
2022-11-13T15:32:29.087Z,100285.53
2022-11-13T15:34:57.656Z,100285.53
2022-11-13T15:37:26.880Z,100289.88
2022-11-13T15:39:55.271Z,100290.66
2022-11-13T15:42:31.080Z,100292.53
2022-11-13T15:45:01.928Z,100286.69
2022-11-13T15:47:36.301Z,100289.38
2022-11-13T15:50:16.203Z,100285.50
2022-11-13T15:52:49.121Z,100290.94
2022-11-13T15:55:26.689Z,100295.31
2022-11-13T15:57:56.620Z,100298.84
2022-11-13T16:00:29.391Z,100292.69
2022-11-13T16:03:00.104Z,100290.72
2022-11-13T16:05:30.110Z,100289.00
2022-11-13T16:07:59.290Z,100291.69
2022-11-13T16:10:28.339Z,100298.22
2022-11-13T16:12:57.342Z,100303.38
2022-11-13T16:15:27.994Z,100305.25
2022-11-13T16:17:59.029Z,100304.06
2022-11-13T16:20:28.912Z,100306.72
2022-11-13T16:22:58.803Z,100308.34
2022-11-13T16:25:28.251Z,100311.00
2022-11-13T16:27:57.749Z,100309.03
2022-11-13T16:30:29.389Z,100308.13
2022-11-13T16:32:58.980Z,100301.22
2022-11-13T16:35:29.991Z,100309.13
2022-11-13T16:37:58.599Z,100310.72
2022-11-13T16:40:29.666Z,100305.97
2022-11-13T16:42:59.274Z,100309.22
2022-11-13T16:45:31.964Z,100312.50
2022-11-13T16:48:00.799Z,100304.72
2022-11-13T16:50:34.000Z,100297.81
2022-11-13T16:53:03.094Z,100299.97
2022-11-13T16:55:33.085Z,100301.56
2022-11-13T16:58:03.355Z,100301.81
2022-11-13T17:00:34.521Z,100299.56
2022-11-13T17:03:04.443Z,100310.00
2022-11-13T17:05:33.402Z,100293.16
2022-11-13T17:08:03.284Z,100294.25
2022-11-13T17:10:36.596Z,100299.97
2022-11-13T17:13:09.124Z,100297.75
2022-11-13T17:15:48.946Z,100302.66
2022-11-13T17:18:19.317Z,100299.31
2022-11-13T17:20:52.707Z,100306.16
2022-11-13T17:23:22.272Z,100310.00
2022-11-13T17:25:51.491Z,100310.25
2022-11-13T17:28:21.273Z,100312.41
2022-11-13T17:30:56.435Z,100304.41
2022-11-13T17:33:30.472Z,100309.31
2022-11-13T17:36:01.544Z,100304.09
2022-11-13T17:38:31.582Z,100304.31
2022-11-13T17:41:08.459Z,100310.34
2022-11-13T17:43:38.384Z,100302.31
2022-11-13T17:46:13.200Z,100309.72
2022-11-13T17:48:42.916Z,100303.16
2022-11-13T17:51:15.274Z,100306.16
2022-11-13T17:53:46.288Z,100314.63
2022-11-13T17:56:16.595Z,100304.16
2022-11-13T17:58:47.604Z,100309.88
2022-11-13T18:01:23.336Z,100312.06
2022-11-13T18:03:58.953Z,100314.22
2022-11-13T18:06:29.361Z,100312.53
2022-11-13T18:08:59.248Z,100308.13
2022-11-13T18:11:30.530Z,100304.81
2022-11-13T18:14:00.085Z,100309.72
2022-11-13T18:16:35.490Z,100314.84
2022-11-13T18:19:08.906Z,100307.91
2022-11-13T18:21:44.141Z,100306.72
2022-11-13T18:24:18.457Z,100310.81
2022-11-13T18:26:49.157Z,100308.31
2022-11-13T18:29:19.096Z,100312.88
2022-11-13T18:31:49.666Z,100305.72
2022-11-13T18:34:20.158Z,100314.19
2022-11-13T18:36:50.434Z,100305.38
2022-11-13T18:39:19.503Z,100312.19
2022-11-13T18:41:48.716Z,100303.34
2022-11-13T18:44:19.189Z,100306.34
2022-11-13T18:46:50.691Z,100303.84
2022-11-13T18:49:22.015Z,100308.75
2022-11-13T18:51:52.059Z,100298.00
2022-11-13T18:54:22.323Z,100291.91
2022-11-13T18:56:53.385Z,100293.00
2022-11-13T18:59:23.207Z,100295.16
2022-11-13T19:01:55.163Z,100300.91
2022-11-13T19:04:27.569Z,100297.31
2022-11-13T19:07:00.029Z,100290.13
2022-11-13T19:09:29.919Z,100290.13
2022-11-13T19:11:59.609Z,100294.81
2022-11-13T19:14:31.829Z,100286.00
2022-11-13T19:17:04.051Z,100278.56
2022-11-13T19:19:35.525Z,100290.66
2022-11-13T19:22:05.586Z,100286.81
2022-11-13T19:24:41.643Z,100288.97
2022-11-13T19:27:15.034Z,100285.38
2022-11-13T19:29:46.092Z,100280.38
2022-11-13T19:32:17.566Z,100290.06
2022-11-13T19:34:48.278Z,100288.97
2022-11-13T19:37:19.421Z,100282.41
2022-11-13T19:39:49.931Z,100288.47
2022-11-13T19:42:20.870Z,100285.72
2022-11-13T19:44:50.495Z,100285.47
2022-11-13T19:47:23.424Z,100284.41
2022-11-13T19:49:56.792Z,100285.25
2022-11-13T19:52:27.289Z,100281.41
2022-11-13T19:54:57.350Z,100286.31
2022-11-13T19:57:27.032Z,100278.06
2022-11-13T19:59:56.147Z,100286.56
2022-11-13T20:02:34.445Z,100281.88
2022-11-13T20:05:04.498Z,100281.88
2022-11-13T20:07:34.033Z,100276.38
2022-11-13T20:10:04.295Z,100273.63
2022-11-13T20:12:34.098Z,100274.47
2022-11-13T20:15:04.734Z,100283.56
2022-11-13T20:17:37.428Z,100279.13
2022-11-13T20:20:10.846Z,100272.00
2022-11-13T20:22:40.636Z,100263.75
2022-11-13T20:25:11.605Z,100272.00
2022-11-13T20:27:46.039Z,100264.00
2022-11-13T20:30:17.982Z,100276.06
2022-11-13T20:32:49.347Z,100264.47
2022-11-13T20:35:20.858Z,100263.06
2022-11-13T20:37:51.912Z,100262.47
2022-11-13T20:40:25.920Z,100262.09
2022-11-13T20:42:56.232Z,100256.28
2022-11-13T20:45:27.415Z,100263.94
2022-11-13T20:47:58.631Z,100261.66
2022-11-13T20:50:27.926Z,100258.34
2022-11-13T20:52:58.278Z,100270.63
2022-11-13T20:55:27.814Z,100253.56
2022-11-13T20:57:58.937Z,100250.47
2022-11-13T21:00:28.459Z,100247.13
2022-11-13T21:03:00.735Z,100255.63
2022-11-13T21:05:30.226Z,100253.34
2022-11-13T21:07:59.358Z,100251.69
2022-11-13T21:10:28.929Z,100243.94
2022-11-13T21:12:58.812Z,100245.84
2022-11-13T21:15:27.772Z,100244.41
2022-11-13T21:17:59.470Z,100239.16
2022-11-13T21:20:28.741Z,100236.41
2022-11-13T21:23:00.422Z,100241.91
2022-11-13T21:25:30.020Z,100236.69
2022-11-13T21:28:00.572Z,100227.59
2022-11-13T21:30:29.251Z,100229.75
2022-11-13T21:33:01.900Z,100238.22
2022-11-13T21:35:31.910Z,100233.81
2022-11-13T21:38:00.440Z,100239.06
2022-11-13T21:40:29.413Z,100233.81
2022-11-13T21:42:58.134Z,100226.41
2022-11-13T21:45:26.732Z,100229.16
2022-11-13T21:47:55.159Z,100224.25
2022-11-13T21:50:24.965Z,100228.91
2022-11-13T21:52:53.417Z,100228.91
2022-11-13T21:55:21.897Z,100224.47
2022-11-13T21:57:50.269Z,100221.75
2022-11-13T22:00:19.646Z,100220.94
2022-11-13T22:02:48.086Z,100222.56
2022-11-13T22:05:16.870Z,100227.00
2022-11-13T22:07:46.626Z,100221.50
2022-11-13T22:10:15.367Z,100222.34
2022-11-13T22:12:43.713Z,100225.09
2022-11-13T22:15:12.880Z,100217.94
2022-11-13T22:17:41.858Z,100233.56
2022-11-13T22:20:11.375Z,100220.94
2022-11-13T22:22:39.739Z,100229.16
2022-11-13T22:25:10.458Z,100224.47
2022-11-13T22:27:38.825Z,100227.22
2022-11-13T22:30:08.933Z,100219.84
2022-11-13T22:32:37.322Z,100215.19
2022-11-13T22:35:06.990Z,100220.69
2022-11-13T22:37:35.361Z,100214.13
2022-11-13T22:40:03.776Z,100206.47
2022-11-13T22:42:33.537Z,100207.53
2022-11-13T22:45:04.418Z,100210.28
2022-11-13T22:47:39.231Z,100210.03
2022-11-13T22:50:08.451Z,100199.28
2022-11-13T22:52:36.968Z,100204.78
2022-11-13T22:55:06.445Z,100195.69
2022-11-13T22:57:36.224Z,100194.06
2022-11-13T23:00:09.466Z,100194.06
2022-11-13T23:02:39.879Z,100189.63
2022-11-13T23:05:11.655Z,100182.47
2022-11-13T23:07:40.095Z,100187.13
2022-11-13T23:10:11.141Z,100179.16
2022-11-13T23:12:41.282Z,100176.41
2022-11-13T23:15:11.504Z,100170.91
2022-11-13T23:17:39.876Z,100159.06
2022-11-13T23:20:10.339Z,100161.81
2022-11-13T23:22:38.801Z,100156.34
2022-11-13T23:25:08.292Z,100155.50
2022-11-13T23:27:36.702Z,100155.50
2022-11-13T23:30:08.370Z,100162.88
2022-11-13T23:32:36.805Z,100151.91
2022-11-13T23:35:05.593Z,100160.13
2022-11-13T23:37:33.980Z,100147.25
2022-11-13T23:40:02.372Z,100156.34
2022-11-13T23:42:53.539Z,100160.72
2022-11-13T23:45:20.533Z,100166.22
2022-11-13T23:47:48.890Z,100167.06
2022-11-13T23:50:17.480Z,100167.06
2022-11-13T23:52:45.920Z,100165.16
2022-11-13T23:55:14.262Z,100165.16
2022-11-13T23:57:42.896Z,100155.81
